Timeline UpdatesTrip UpdatesNews PostsPvt PostsTravel TipsAdmin PostsConv PostsFollowed PostsChat RequestsBlog PostsPNR Posts

Disclaimer
Search
 
 
Fri Aug 1, 2014 01:07:53 ISTHomeTrainsΣChainsAtlasPNRForumGalleryNewsFAQTripsMembersLoginFeedback
No Recent News for this Train
Other Trains in the News **new
Latest...
.
Sat Feb 01, 2014 (02:24PM)
⇐ Return Journey: Train# 18233

18234/Narmada Express

Nov 09 2013 (8:39PM)
Change Departure Station:
Change Arrival Station:
Post a Train Travel TipPost a Train Travel Tip **new
Post a Comment/Question/Picture/VideoPost a Comment/Question/Picture/Video
Pantry/Catering
✕ NO Pantry Car
✓ Catering Avbl
Loco/Rake Reversals
KTE/Katni Junction (6); ET/Itarsi Junction (7); UJN/Ujjain Junction (8);
RSA - Rake Sharing
No RSA..
Rake/Coach Composition
ENG-SLR-GS-GS-GS-S1-S2-S3-S4-S5-S6-S7-S8-S9-S10-A1-HA1-B1-B2-GS-GS-SLR (BSP-KTE), (ET-UJN); ENG-SLR-GS-GS-B2-B1-HA1-A1-S10-S9-S8-S7-S6-S5-S4-S3-S2-S1-GS-GS-GS-SLR (KTE-ET), (UJN,INDB).
Loco
ET WAM 4/6p (BSP-KTE) ET WDP 4/WDM-3A (KTE-ET) ET WAM 4/6p (ET-INDB)
News    PNR    Forum    Time-Table    Availability    Fare Chart    Map    Arr/Dep History    Trips    Gallery    ΣChains    X/O    Timeline    
Travel Time: 12h 49m    41 halts    Distance: 511 km    Avg Speed: 39 km/hr
Type: Mail/Express
Zone: SECR/South East Central
Departs @ 09:55 (Avg 3m late)
Platform# 8
SMTWTFS
Bilaspur Junction/BSP 
Arrives @ 22:44 (Avg 43m late)
Platform# 2
SMTWTFS
Kareli/KY 

41 halts. 60 intermediate Stations between Bilaspur Junction and Kareli

Show ALL intermediate Stations  Show Old Time-Table

#CodeStation NameX/OArrivesAvgDepartsAvgHaltPFDay#KmSpeedElevZoneAddress
1BSP»Bilaspur Junction (8)»  -09:55+3810.039271mSECRBilaspur, Chhattisgarh
2USLUslapur (3)  10:08+910:10+92m--18.676272mSECRBilaspur, Chhattisgarh
3GTKGhutkuX  10:16+1310:17+141m--116.260288mSECRBilaspur, Chhattisgarh
4KLTRKalmitarX  10:25+1610:26+171m--124.243300mSECRUsalapur, Chhattisgarh
5KGBKargi RoadX  10:37+1510:38+171m--132.054327mSECRBilaspur, Chhattisgarh
6SLKRSalkaroadX  10:47+1910:48+221m--140.242333mSECRGhutku, Chhattisgarh
7BIGBelgahna  10:59+2111:00+241m--147.865327mSECRBilaspur, Chhattisgarh
8TGQTenganmada  11:09+2511:10+281m--157.657367mSECRBelgahna, Chhattisgarh
9KGSKhongsaraX  11:19+2911:20+311m--166.147378mSECRBhanwar, Chhattisgarh
10BHTKBhanwar TonkX  11:36+3311:37+341m--178.646455mSECRKhodri, Chhattisgarh
11KOIKhodri  11:52+3511:53+391m--190.131558mSECRBilaspur, Chhattisgarh
12PNDPendra Road  12:15+3912:20+435m--1101.584620mSECRBilaspur district, Chhattisgarh
13HRBHarri  12:26+4712:27+491m--1110.071595mSECRVenkatnagar, Madhya Pradesh
14VKRVenkatnagar  12:36+5112:37+531m--1120.657549mSECRPendra Rd, Madhya Pradesh
15NIQNigaura  12:45+5412:46+571m--1128.271547mSECRAnuppur, Madhya Pradesh
16JTIJaithari  12:55+5912:56+1:001m--1138.865522mSECRAnuppur, Madhya Pradesh
17CLFChhulhaX  13:04+1:0113:05+1:051m--1147.621488mSECRMauhari, Madhya Pradesh
18APRAnuppur Junction (3)X  13:20+5813:25+1:005m--1152.785487mSECRAnuppur, Madhya Pradesh
19AALAmlai  13:34+1:0613:35+1:081m41165.458495mSECRAnuppur, Madhya Pradesh
20BUHBurhar  13:44+1:0813:45+1:111m21174.158494mSECRBurhar, Madhya Pradesh
21SNGPSinghpur  13:59+1:1214:00+1:121m--1187.77502mSECRBurhar, Madhya Pradesh
22SDLShahdolX  14:50+3015:00+3110m11193.666466mSECR, Madhya Pradesh
23BRSBirsinghpur  15:34+3915:35+401m21231.054461mSECRPali, Madhya Pradesh
24NRZBNowrozabad  15:43+4015:44+411m--1238.260458mSECRNational Highway 78, Madhya Pradesh
25KKIKarkeli  15:54+4015:55+411m--1248.250471mSECRUmaria, Madhya Pradesh
26UMRUmaria (3)X  16:10+3816:15+375m--1260.876469mSECRUmaria, Madhya Pradesh
27CHDChandia Road (1)X  16:30+3516:31+371m11279.845406mSECRNational Highway 78, Madhya Pradesh
28RPDRupaundX  16:54+3316:55+351m--1297.115417mSECRJhalwara, Madhya Pradesh
29JLWJhalwaraO  17:41+417:42+81m--1308.915406mSECRNational Highway 78, Madhya Pradesh
30KTEKatni Junction (6)X18:25+1718:45+2420m31319.4132387mWCRKatni, Madhya Pradesh
31NWRNiwar (2)  18:51+3618:52+391m--1332.658412mWCRPipraundh, Madhya Pradesh
32SNRRSansarpur (2)X  19:00+2219:01+231m--1340.452436mWCRNational Highway 7, Madhya Pradesh
33SBDSleemanabad Road (2)X  19:09+4119:10+421m--1347.363434mWCRSleemanabad, Madhya Pradesh
34DDCEDundi (2)X  19:19+4719:20+501m--1356.889415mWCRDundi, Madhya Pradesh
35SHRSihora Road (2)X  19:30+5019:32+502m--1371.748388mWCRJabalpur, Madhya Pradesh
36GSPRGosalpur (2)  19:46+4919:47+501m--1382.842396mWCRJabalpur, Madhya Pradesh
37DOEDeori (2)  20:02+4720:03+491m--1393.333392mWCRJabalpur, Madhya Pradesh
38ADTLAdhartal (2)  20:19+4420:20+521m--1402.116393mWCRJabalpur, Madhya Pradesh
39JBPJabalpur Junction (4)X  20:50+4221:00+4710m11410.123416mWCRJabalpur, Madhya Pradesh
40MMLMadan Mahal (3)  21:09+4221:11+422m11413.688428mWCRJabalpur, Madhya Pradesh
41SRIDShridham (3)X  21:45+5221:47+542m31463.348373mWCRShridham, Madhya Pradesh
42NUNarsinghpur (2)X  22:26+4722:28+472m21494.361365mWCRNarsimhapur, Madhya Pradesh
43KY•Kareli (2)•  22:44+4322:45+441m21510.780361mWCRKareli, Madhya Pradesh
44GARGadarwara (2)XO  23:06+4523:07+491m21538.793352mWCRNarsinghpur, Madhya Pradesh
45SCKRSalichauka Road (2)  23:16+5223:17+541m--1552.647355mWCRGadarwara, Madhya Pradesh
46PPIPipariya (3)X  00:02+3600:04+362m22588.166338mWCRPiparia, Madhya Pradesh
47SGPSohagpur (2)  00:20+3400:21+351m--2605.838340mWCRSohagpur, Madhya Pradesh
48BGTABagratawa (2)X  00:57+1800:58+201m--2628.830338mWCRBagra Tawa, Madhya Pradesh
49ETItarsi Junction (7)X01:50+2302:05+3715m42655.357329mWCRItarsi 461111, Madhya Pradesh
50HBDHoshangabad (2)X  02:24+3902:25+411m--2673.451308mWCRHoshangabad, Madhya Pradesh
51ODGObaidulla Ganj  03:09+4503:10+461m22711.158450mWCRObaidullaganj Raisen Dist., Madhya Pradesh
52MDDPMandi Dip (1)X  03:24+4603:25+461m12724.654449mWCRMandideep, Madhya Pradesh
53HBJBhopal HabibGanj (5)  03:43+4003:44+401m12740.712496mWCRHabibGanj, Madhya Pradesh
54BPLBhopal Junction (6)  04:15+3004:25+3210m42747.029497mWCRBhopal, Madhya Pradesh
55BIHBairagarh (2)X  04:46+4104:47+421m12757.268522mWRBhopal, Madhya Pradesh
56SEHSehore (2)X  05:12+4305:13+441m12785.770500mWRMP 466001, Madhya Pradesh
57KPPKalapipal (2)  05:38+4105:39+411m--2814.758487mWRState Highway 41, Madhya Pradesh
58SJPShujalpur (3)  05:52+4205:53+431m--2827.360453mWRShujalpur, Madhya Pradesh
59AKDAkodia (2)  06:06+4206:07+431m--2840.472460mWRDist. Shajapur, Madhya Pradesh
60KSHKali Sindh (2)X  06:22+4306:23+431m--2858.361443mWRShajapur, Madhya Pradesh
61BCHBerchha (2)X  06:35+4306:36+441m--2870.554490mWRShajapur, Madhya Pradesh
62MKCMaksi Junction (3)X  06:57+4306:59+432m--2889.364513mWRMakshi, Madhya Pradesh
63TANTarana Road  07:08+4407:09+451m--2898.931498mWRMaksi, Madhya Pradesh
64UJNUjjain Junction (8)08:10+1808:30+2720m--2930.423492mWRUjjain 456001, Madhya Pradesh
65VRGVikram Nagar  08:44+3308:45+411m--2935.825503mWRUjjain, Madhya Pradesh
66KDHAKarchhaX  09:15+2409:16+321m--2948.126514mWRState Highway 18, Madhya Pradesh
67UDMUndasa Madhopur  09:29+2809:30+291m--2953.787528mWRState Highway 18, Madhya Pradesh
68NRGRNaranjipur (1)  09:35+2609:36+301m12960.942537mWRDewas, Madhya Pradesh
69DWXDewas Junction (2)  09:50+2709:52+352m--2970.832541mWRDewas, Madhya Pradesh
70BLAXBarlaiX  10:18+2110:19+281m--2984.535519mWRIndore, Madhya Pradesh
71MGGMangliyagaon (2)  10:36+2110:37+251m--2994.553534mWRMangilya, Madhya Pradesh
72LMNRLaxmibai Nagar (3)  10:50+2610:51+281m--21006.023543mWRIndore, Madhya Pradesh
73INDBIndore Junction BG (3)  11:00+20-321009.5-552mWRIndore, Madhya Pradesh
Scroll to Top
Scroll to Bottom